sensor_id;sensor_type;location;lat;lon;timestamp;P1;durP1;ratioP1;P2;durP2;ratioP2
73898;SDS011;62234;50.892;12.724;2023-10-13T00:01:41;8.02;;;3.67;;
73898;SDS011;62234;50.892;12.724;2023-10-13T00:04:07;6.63;;;3.92;;
73898;SDS011;62234;50.892;12.724;2023-10-13T00:06:33;7.35;;;4.15;;
73898;SDS011;62234;50.892;12.724;2023-10-13T00:08:59;8.77;;;3.95;;
73898;SDS011;62234;50.892;12.724;2023-10-13T00:11:25;6.57;;;3.65;;
73898;SDS011;62234;50.892;12.724;2023-10-13T00:13:52;9.27;;;4.38;;
73898;SDS011;62234;50.892;12.724;2023-10-13T00:16:19;7.32;;;4.60;;
73898;SDS011;62234;50.892;12.724;2023-10-13T00:18:52;8.73;;;4.22;;
73898;SDS011;62234;50.892;12.724;2023-10-13T00:21:24;6.35;;;4.60;;
73898;SDS011;62234;50.892;12.724;2023-10-13T00:23:57;9.38;;;4.32;;
73898;SDS011;62234;50.892;12.724;2023-10-13T00:26:25;8.95;;;4.88;;
73898;SDS011;62234;50.892;12.724;2023-10-13T00:28:55;7.93;;;4.63;;
73898;SDS011;62234;50.892;12.724;2023-10-13T00:31:40;5.40;;;4.30;;
73898;SDS011;62234;50.892;12.724;2023-10-13T00:34:07;6.05;;;4.38;;
73898;SDS011;62234;50.892;12.724;2023-10-13T00:36:40;5.47;;;4.03;;
73898;SDS011;62234;50.892;12.724;2023-10-13T00:39:13;11.70;;;4.30;;
73898;SDS011;62234;50.892;12.724;2023-10-13T00:41:41;7.15;;;4.50;;
73898;SDS011;62234;50.892;12.724;2023-10-13T00:44:23;7.55;;;3.75;;
73898;SDS011;62234;50.892;12.724;2023-10-13T00:47:09;6.90;;;4.47;;
73898;SDS011;62234;50.892;12.724;2023-10-13T00:49:41;7.05;;;4.22;;
73898;SDS011;62234;50.892;12.724;2023-10-13T00:52:11;9.45;;;4.47;;
73898;SDS011;62234;50.892;12.724;2023-10-13T00:54:40;6.80;;;4.65;;
73898;SDS011;62234;50.892;12.724;2023-10-13T00:57:06;11.50;;;4.22;;
73898;SDS011;62234;50.892;12.724;2023-10-13T00:59:37;7.95;;;4.43;;
73898;SDS011;62234;50.892;12.724;2023-10-13T01:02:03;6.07;;;4.05;;
73898;SDS011;62234;50.892;12.724;2023-10-13T01:04:48;9.93;;;4.13;;
73898;SDS011;62234;50.892;12.724;2023-10-13T01:07:14;8.48;;;4.30;;
73898;SDS011;62234;50.892;12.724;2023-10-13T01:09:41;8.23;;;4.20;;
73898;SDS011;62234;50.892;12.724;2023-10-13T01:12:07;8.48;;;4.53;;
73898;SDS011;62234;50.892;12.724;2023-10-13T01:14:33;7.63;;;4.10;;
73898;SDS011;62234;50.892;12.724;2023-10-13T01:17:00;9.10;;;4.22;;
73898;SDS011;62234;50.892;12.724;2023-10-13T01:19:26;6.30;;;4.20;;
73898;SDS011;62234;50.892;12.724;2023-10-13T01:21:52;9.23;;;4.30;;
73898;SDS011;62234;50.892;12.724;2023-10-13T01:24:26;6.70;;;4.53;;
73898;SDS011;62234;50.892;12.724;2023-10-13T01:26:56;7.63;;;4.40;;
73898;SDS011;62234;50.892;12.724;2023-10-13T01:29:22;8.63;;;4.90;;
73898;SDS011;62234;50.892;12.724;2023-10-13T01:31:54;8.32;;;4.18;;
73898;SDS011;62234;50.892;12.724;2023-10-13T01:34:20;8.30;;;4.63;;
73898;SDS011;62234;50.892;12.724;2023-10-13T01:36:49;5.10;;;4.05;;
73898;SDS011;62234;50.892;12.724;2023-10-13T01:39:19;7.50;;;4.45;;
73898;SDS011;62234;50.892;12.724;2023-10-13T01:41:46;8.55;;;4.10;;
73898;SDS011;62234;50.892;12.724;2023-10-13T01:44:18;6.97;;;3.75;;
73898;SDS011;62234;50.892;12.724;2023-10-13T01:46:45;7.45;;;3.67;;
73898;SDS011;62234;50.892;12.724;2023-10-13T01:49:12;6.38;;;4.10;;
73898;SDS011;62234;50.892;12.724;2023-10-13T01:51:40;6.45;;;3.63;;
73898;SDS011;62234;50.892;12.724;2023-10-13T01:54:06;6.10;;;3.28;;
73898;SDS011;62234;50.892;12.724;2023-10-13T01:56:36;9.77;;;4.05;;
73898;SDS011;62234;50.892;12.724;2023-10-13T01:59:07;6.68;;;4.20;;
73898;SDS011;62234;50.892;12.724;2023-10-13T02:01:34;7.35;;;4.38;;
73898;SDS011;62234;50.892;12.724;2023-10-13T02:04:00;9.98;;;4.72;;
73898;SDS011;62234;50.892;12.724;2023-10-13T02:06:30;10.27;;;4.40;;
73898;SDS011;62234;50.892;12.724;2023-10-13T02:08:59;6.40;;;4.05;;
73898;SDS011;62234;50.892;12.724;2023-10-13T02:11:35;8.25;;;5.05;;
73898;SDS011;62234;50.892;12.724;2023-10-13T02:14:02;8.77;;;3.95;;
73898;SDS011;62234;50.892;12.724;2023-10-13T02:16:28;9.73;;;4.50;;
73898;SDS011;62234;50.892;12.724;2023-10-13T02:18:56;8.75;;;5.38;;
73898;SDS011;62234;50.892;12.724;2023-10-13T02:21:22;6.57;;;4.72;;
73898;SDS011;62234;50.892;12.724;2023-10-13T02:23:57;8.98;;;4.47;;
73898;SDS011;62234;50.892;12.724;2023-10-13T02:26:31;6.15;;;3.72;;
73898;SDS011;62234;50.892;12.724;2023-10-13T02:29:03;9.40;;;4.10;;
73898;SDS011;62234;50.892;12.724;2023-10-13T02:31:36;7.68;;;5.03;;
73898;SDS011;62234;50.892;12.724;2023-10-13T02:34:02;8.18;;;4.72;;
73898;SDS011;62234;50.892;12.724;2023-10-13T02:36:35;8.10;;;4.47;;
73898;SDS011;62234;50.892;12.724;2023-10-13T02:39:04;6.30;;;4.25;;
73898;SDS011;62234;50.892;12.724;2023-10-13T02:41:34;6.80;;;4.32;;
73898;SDS011;62234;50.892;12.724;2023-10-13T02:44:04;8.93;;;4.25;;
73898;SDS011;62234;50.892;12.724;2023-10-13T02:46:45;10.60;;;4.28;;
73898;SDS011;62234;50.892;12.724;2023-10-13T02:49:15;11.07;;;5.25;;
73898;SDS011;62234;50.892;12.724;2023-10-13T02:51:44;9.20;;;4.63;;
73898;SDS011;62234;50.892;12.724;2023-10-13T02:54:10;7.35;;;4.10;;
73898;SDS011;62234;50.892;12.724;2023-10-13T02:56:39;8.70;;;5.32;;
73898;SDS011;62234;50.892;12.724;2023-10-13T03:08:43;7.68;;;4.15;;
73898;SDS011;62234;50.892;12.724;2023-10-13T03:11:10;6.88;;;3.97;;
73898;SDS011;62234;50.892;12.724;2023-10-13T03:13:36;7.22;;;4.25;;
73898;SDS011;62234;50.892;12.724;2023-10-13T03:16:11;9.15;;;4.70;;
73898;SDS011;62234;50.892;12.724;2023-10-13T03:18:36;7.03;;;4.50;;
73898;SDS011;62234;50.892;12.724;2023-10-13T03:21:03;8.15;;;3.85;;
73898;SDS011;62234;50.892;12.724;2023-10-13T03:23:29;8.65;;;4.38;;
73898;SDS011;62234;50.892;12.724;2023-10-13T03:26:10;9.10;;;4.00;;
73898;SDS011;62234;50.892;12.724;2023-10-13T03:28:36;7.32;;;4.55;;
73898;SDS011;62234;50.892;12.724;2023-10-13T03:31:03;7.10;;;4.57;;
73898;SDS011;62234;50.892;12.724;2023-10-13T03:33:31;8.35;;;4.55;;
73898;SDS011;62234;50.892;12.724;2023-10-13T03:35:58;6.93;;;4.30;;
73898;SDS011;62234;50.892;12.724;2023-10-13T03:38:30;6.03;;;4.18;;
73898;SDS011;62234;50.892;12.724;2023-10-13T03:41:01;7.13;;;4.18;;
73898;SDS011;62234;50.892;12.724;2023-10-13T03:46:35;6.78;;;4.22;;
73898;SDS011;62234;50.892;12.724;2023-10-13T03:49:06;7.57;;;4.45;;
73898;SDS011;62234;50.892;12.724;2023-10-13T03:51:37;7.68;;;4.25;;
73898;SDS011;62234;50.892;12.724;2023-10-13T03:54:04;6.32;;;4.28;;
73898;SDS011;62234;50.892;12.724;2023-10-13T03:56:32;7.85;;;4.55;;
73898;SDS011;62234;50.892;12.724;2023-10-13T03:59:05;7.82;;;4.20;;
73898;SDS011;62234;50.892;12.724;2023-10-13T04:01:35;5.90;;;4.35;;
73898;SDS011;62234;50.892;12.724;2023-10-13T04:04:12;6.47;;;3.55;;
73898;SDS011;62234;50.892;12.724;2023-10-13T04:06:54;8.30;;;3.88;;
73898;SDS011;62234;50.892;12.724;2023-10-13T04:09:38;6.22;;;4.05;;
73898;SDS011;62234;50.892;12.724;2023-10-13T04:12:05;7.65;;;3.70;;
73898;SDS011;62234;50.892;12.724;2023-10-13T04:14:41;9.18;;;4.38;;
73898;SDS011;62234;50.892;12.724;2023-10-13T04:17:23;28.80;;;7.03;;
73898;SDS011;62234;50.892;12.724;2023-10-13T04:19:52;8.70;;;4.57;;
73898;SDS011;62234;50.892;12.724;2023-10-13T04:22:31;10.32;;;4.55;;
73898;SDS011;62234;50.892;12.724;2023-10-13T04:25:12;7.50;;;4.32;;
73898;SDS011;62234;50.892;12.724;2023-10-13T04:27:57;6.80;;;4.35;;
73898;SDS011;62234;50.892;12.724;2023-10-13T04:30:47;6.30;;;4.40;;
73898;SDS011;62234;50.892;12.724;2023-10-13T04:33:26;7.13;;;4.22;;
73898;SDS011;62234;50.892;12.724;2023-10-13T04:38:38;8.10;;;4.07;;
73898;SDS011;62234;50.892;12.724;2023-10-13T04:41:20;10.73;;;4.70;;
73898;SDS011;62234;50.892;12.724;2023-10-13T04:43:49;6.60;;;4.65;;
73898;SDS011;62234;50.892;12.724;2023-10-13T04:46:23;9.88;;;5.13;;
73898;SDS011;62234;50.892;12.724;2023-10-13T04:49:19;11.45;;;4.32;;
73898;SDS011;62234;50.892;12.724;2023-10-13T04:51:57;7.45;;;4.38;;
73898;SDS011;62234;50.892;12.724;2023-10-13T04:57:27;8.98;;;5.57;;
73898;SDS011;62234;50.892;12.724;2023-10-13T05:00:12;9.63;;;4.32;;
73898;SDS011;62234;50.892;12.724;2023-10-13T05:02:42;8.82;;;4.40;;
73898;SDS011;62234;50.892;12.724;2023-10-13T05:05:20;8.15;;;4.35;;
73898;SDS011;62234;50.892;12.724;2023-10-13T05:07:49;10.57;;;4.15;;
73898;SDS011;62234;50.892;12.724;2023-10-13T05:22:51;8.98;;;5.07;;
73898;SDS011;62234;50.892;12.724;2023-10-13T05:25:36;7.05;;;5.18;;
73898;SDS011;62234;50.892;12.724;2023-10-13T05:28:21;10.25;;;4.80;;
73898;SDS011;62234;50.892;12.724;2023-10-13T05:31:06;9.38;;;4.97;;
73898;SDS011;62234;50.892;12.724;2023-10-13T05:36:57;8.48;;;4.53;;
73898;SDS011;62234;50.892;12.724;2023-10-13T05:39:42;8.65;;;4.93;;
73898;SDS011;62234;50.892;12.724;2023-10-13T05:42:26;8.57;;;4.35;;
73898;SDS011;62234;50.892;12.724;2023-10-13T05:45:11;6.55;;;4.35;;
73898;SDS011;62234;50.892;12.724;2023-10-13T05:47:43;8.88;;;5.10;;
73898;SDS011;62234;50.892;12.724;2023-10-13T05:50:12;9.90;;;4.43;;
73898;SDS011;62234;50.892;12.724;2023-10-13T05:52:41;8.30;;;4.10;;
73898;SDS011;62234;50.892;12.724;2023-10-13T05:55:19;9.60;;;4.53;;
73898;SDS011;62234;50.892;12.724;2023-10-13T05:58:04;4.80;;;3.72;;
73898;SDS011;62234;50.892;12.724;2023-10-13T06:00:48;8.77;;;4.53;;
73898;SDS011;62234;50.892;12.724;2023-10-13T06:03:33;13.18;;;6.28;;
73898;SDS011;62234;50.892;12.724;2023-10-13T06:06:17;7.88;;;4.38;;
73898;SDS011;62234;50.892;12.724;2023-10-13T06:09:02;6.18;;;3.90;;
73898;SDS011;62234;50.892;12.724;2023-10-13T06:11:46;8.40;;;4.15;;
73898;SDS011;62234;50.892;12.724;2023-10-13T06:14:31;6.75;;;3.88;;
73898;SDS011;62234;50.892;12.724;2023-10-13T06:17:15;7.53;;;4.03;;
73898;SDS011;62234;50.892;12.724;2023-10-13T06:20:00;6.63;;;3.92;;
73898;SDS011;62234;50.892;12.724;2023-10-13T06:22:47;6.70;;;3.60;;
73898;SDS011;62234;50.892;12.724;2023-10-13T06:25:32;7.22;;;3.50;;
73898;SDS011;62234;50.892;12.724;2023-10-13T06:28:16;8.50;;;3.85;;
73898;SDS011;62234;50.892;12.724;2023-10-13T06:31:01;6.05;;;3.83;;
73898;SDS011;62234;50.892;12.724;2023-10-13T06:33:27;7.10;;;3.20;;
73898;SDS011;62234;50.892;12.724;2023-10-13T06:35:58;5.38;;;3.33;;
73898;SDS011;62234;50.892;12.724;2023-10-13T06:38:24;7.28;;;3.58;;
73898;SDS011;62234;50.892;12.724;2023-10-13T06:40:55;7.43;;;3.22;;
73898;SDS011;62234;50.892;12.724;2023-10-13T06:43:22;4.45;;;3.20;;
73898;SDS011;62234;50.892;12.724;2023-10-13T06:45:48;6.30;;;3.40;;
73898;SDS011;62234;50.892;12.724;2023-10-13T06:48:27;4.50;;;2.90;;
73898;SDS011;62234;50.892;12.724;2023-10-13T06:50:58;5.25;;;2.53;;
73898;SDS011;62234;50.892;12.724;2023-10-13T06:53:30;5.07;;;2.67;;
73898;SDS011;62234;50.892;12.724;2023-10-13T06:56:02;6.05;;;2.53;;
73898;SDS011;62234;50.892;12.724;2023-10-13T06:58:29;3.38;;;2.45;;
73898;SDS011;62234;50.892;12.724;2023-10-13T07:00:55;4.53;;;2.63;;
73898;SDS011;62234;50.892;12.724;2023-10-13T07:03:23;5.72;;;2.70;;
73898;SDS011;62234;50.892;12.724;2023-10-13T07:05:50;4.35;;;2.80;;
73898;SDS011;62234;50.892;12.724;2023-10-13T07:08:16;5.70;;;3.15;;
73898;SDS011;62234;50.892;12.724;2023-10-13T07:13:26;7.05;;;2.78;;
73898;SDS011;62234;50.892;12.724;2023-10-13T07:15:53;6.55;;;2.75;;
73898;SDS011;62234;50.892;12.724;2023-10-13T07:18:25;2.67;;;2.35;;
73898;SDS011;62234;50.892;12.724;2023-10-13T07:20:53;6.00;;;2.60;;
73898;SDS011;62234;50.892;12.724;2023-10-13T07:23:22;4.18;;;1.95;;
73898;SDS011;62234;50.892;12.724;2023-10-13T07:25:53;3.95;;;2.63;;
73898;SDS011;62234;50.892;12.724;2023-10-13T07:28:20;11.82;;;3.08;;
73898;SDS011;62234;50.892;12.724;2023-10-13T07:30:46;4.78;;;2.38;;
73898;SDS011;62234;50.892;12.724;2023-10-13T07:33:18;7.03;;;2.10;;
73898;SDS011;62234;50.892;12.724;2023-10-13T07:35:48;2.72;;;2.40;;
73898;SDS011;62234;50.892;12.724;2023-10-13T07:38:25;4.25;;;2.13;;
73898;SDS011;62234;50.892;12.724;2023-10-13T07:40:55;3.90;;;2.53;;
73898;SDS011;62234;50.892;12.724;2023-10-13T07:43:25;4.35;;;2.63;;
73898;SDS011;62234;50.892;12.724;2023-10-13T07:45:52;6.63;;;2.33;;
73898;SDS011;62234;50.892;12.724;2023-10-13T07:48:23;3.53;;;2.65;;
73898;SDS011;62234;50.892;12.724;2023-10-13T07:51:00;4.07;;;2.33;;
73898;SDS011;62234;50.892;12.724;2023-10-13T07:53:26;4.25;;;2.22;;
73898;SDS011;62234;50.892;12.724;2023-10-13T07:55:59;3.58;;;2.30;;
73898;SDS011;62234;50.892;12.724;2023-10-13T07:58:29;3.78;;;1.98;;
73898;SDS011;62234;50.892;12.724;2023-10-13T08:00:58;3.65;;;2.00;;
73898;SDS011;62234;50.892;12.724;2023-10-13T08:03:35;4.97;;;2.58;;
73898;SDS011;62234;50.892;12.724;2023-10-13T08:06:11;6.88;;;2.35;;
73898;SDS011;62234;50.892;12.724;2023-10-13T08:08:38;4.80;;;2.50;;
73898;SDS011;62234;50.892;12.724;2023-10-13T08:11:11;4.22;;;2.20;;
73898;SDS011;62234;50.892;12.724;2023-10-13T08:16:28;5.18;;;2.58;;
73898;SDS011;62234;50.892;12.724;2023-10-13T08:19:20;3.50;;;2.30;;
73898;SDS011;62234;50.892;12.724;2023-10-13T08:21:52;2.95;;;2.33;;
73898;SDS011;62234;50.892;12.724;2023-10-13T08:24:23;5.10;;;2.33;;
73898;SDS011;62234;50.892;12.724;2023-10-13T08:27:13;5.25;;;2.10;;
73898;SDS011;62234;50.892;12.724;2023-10-13T08:29:39;6.72;;;2.60;;
73898;SDS011;62234;50.892;12.724;2023-10-13T08:32:21;3.42;;;2.10;;
73898;SDS011;62234;50.892;12.724;2023-10-13T08:34:56;3.92;;;2.20;;
73898;SDS011;62234;50.892;12.724;2023-10-13T08:37:22;3.42;;;2.13;;
73898;SDS011;62234;50.892;12.724;2023-10-13T08:39:49;5.40;;;2.53;;
73898;SDS011;62234;50.892;12.724;2023-10-13T08:45:09;4.07;;;2.85;;
73898;SDS011;62234;50.892;12.724;2023-10-13T08:47:51;7.90;;;2.50;;
73898;SDS011;62234;50.892;12.724;2023-10-13T08:50:38;8.40;;;2.65;;
73898;SDS011;62234;50.892;12.724;2023-10-13T08:53:30;5.68;;;2.50;;
73898;SDS011;62234;50.892;12.724;2023-10-13T08:56:07;9.93;;;2.45;;
73898;SDS011;62234;50.892;12.724;2023-10-13T08:58:40;7.88;;;2.05;;
73898;SDS011;62234;50.892;12.724;2023-10-13T09:04:06;4.22;;;2.40;;
73898;SDS011;62234;50.892;12.724;2023-10-13T09:09:33;7.53;;;2.20;;
73898;SDS011;62234;50.892;12.724;2023-10-13T09:12:01;10.00;;;3.00;;
73898;SDS011;62234;50.892;12.724;2023-10-13T09:14:34;7.07;;;2.70;;
73898;SDS011;62234;50.892;12.724;2023-10-13T09:17:03;5.00;;;2.75;;
73898;SDS011;62234;50.892;12.724;2023-10-13T09:19:42;9.30;;;2.85;;
73898;SDS011;62234;50.892;12.724;2023-10-13T09:22:19;7.45;;;2.55;;
73898;SDS011;62234;50.892;12.724;2023-10-13T09:24:51;7.28;;;2.38;;
73898;SDS011;62234;50.892;12.724;2023-10-13T09:27:16;4.65;;;2.55;;
73898;SDS011;62234;50.892;12.724;2023-10-13T09:29:42;10.27;;;3.22;;
73898;SDS011;62234;50.892;12.724;2023-10-13T09:32:17;7.10;;;2.60;;
73898;SDS011;62234;50.892;12.724;2023-10-13T09:34:46;6.93;;;2.67;;
73898;SDS011;62234;50.892;12.724;2023-10-13T09:37:13;7.40;;;2.80;;
73898;SDS011;62234;50.892;12.724;2023-10-13T09:39:45;5.45;;;2.35;;
73898;SDS011;62234;50.892;12.724;2023-10-13T09:42:17;9.55;;;3.03;;
73898;SDS011;62234;50.892;12.724;2023-10-13T09:44:43;8.57;;;3.08;;
73898;SDS011;62234;50.892;12.724;2023-10-13T09:47:16;5.18;;;2.50;;
73898;SDS011;62234;50.892;12.724;2023-10-13T09:49:49;8.80;;;2.58;;
73898;SDS011;62234;50.892;12.724;2023-10-13T09:52:17;4.05;;;2.90;;
73898;SDS011;62234;50.892;12.724;2023-10-13T09:54:59;8.90;;;3.05;;
73898;SDS011;62234;50.892;12.724;2023-10-13T09:57:32;6.45;;;3.08;;
73898;SDS011;62234;50.892;12.724;2023-10-13T10:03:06;7.80;;;2.72;;
73898;SDS011;62234;50.892;12.724;2023-10-13T10:06:05;5.78;;;2.45;;
73898;SDS011;62234;50.892;12.724;2023-10-13T10:08:33;7.40;;;2.72;;
73898;SDS011;62234;50.892;12.724;2023-10-13T10:13:45;6.85;;;2.45;;
73898;SDS011;62234;50.892;12.724;2023-10-13T10:16:23;13.32;;;2.65;;
73898;SDS011;62234;50.892;12.724;2023-10-13T10:22:03;7.93;;;3.03;;
73898;SDS011;62234;50.892;12.724;2023-10-13T10:24:55;4.93;;;2.85;;
73898;SDS011;62234;50.892;12.724;2023-10-13T10:27:25;7.32;;;2.60;;
73898;SDS011;62234;50.892;12.724;2023-10-13T10:29:54;4.13;;;2.75;;
73898;SDS011;62234;50.892;12.724;2023-10-13T10:32:20;4.82;;;2.30;;
73898;SDS011;62234;50.892;12.724;2023-10-13T10:34:46;6.50;;;2.25;;
73898;SDS011;62234;50.892;12.724;2023-10-13T10:37:13;8.38;;;2.78;;
73898;SDS011;62234;50.892;12.724;2023-10-13T10:39:39;5.32;;;2.90;;
73898;SDS011;62234;50.892;12.724;2023-10-13T10:42:12;8.40;;;3.17;;
73898;SDS011;62234;50.892;12.724;2023-10-13T10:44:40;4.93;;;2.67;;
73898;SDS011;62234;50.892;12.724;2023-10-13T10:47:12;6.72;;;3.13;;
73898;SDS011;62234;50.892;12.724;2023-10-13T10:49:55;6.68;;;2.70;;
73898;SDS011;62234;50.892;12.724;2023-10-13T10:52:21;6.90;;;2.80;;
73898;SDS011;62234;50.892;12.724;2023-10-13T10:55:00;6.75;;;2.60;;
73898;SDS011;62234;50.892;12.724;2023-10-13T10:57:26;7.28;;;2.35;;
73898;SDS011;62234;50.892;12.724;2023-10-13T10:59:54;11.20;;;3.13;;
73898;SDS011;62234;50.892;12.724;2023-10-13T11:02:37;5.78;;;2.40;;
73898;SDS011;62234;50.892;12.724;2023-10-13T11:05:03;5.03;;;2.67;;
73898;SDS011;62234;50.892;12.724;2023-10-13T11:07:31;7.53;;;2.60;;
73898;SDS011;62234;50.892;12.724;2023-10-13T11:10:07;11.35;;;3.20;;
73898;SDS011;62234;50.892;12.724;2023-10-13T11:12:36;4.18;;;2.53;;
73898;SDS011;62234;50.892;12.724;2023-10-13T11:15:05;9.68;;;3.10;;
73898;SDS011;62234;50.892;12.724;2023-10-13T11:17:39;7.35;;;2.92;;
73898;SDS011;62234;50.892;12.724;2023-10-13T11:20:08;6.40;;;2.50;;
73898;SDS011;62234;50.892;12.724;2023-10-13T11:22:58;5.40;;;2.13;;
73898;SDS011;62234;50.892;12.724;2023-10-13T11:25:34;5.55;;;2.50;;
73898;SDS011;62234;50.892;12.724;2023-10-13T11:28:15;6.90;;;2.75;;
73898;SDS011;62234;50.892;12.724;2023-10-13T11:31:01;4.78;;;2.42;;
73898;SDS011;62234;50.892;12.724;2023-10-13T11:33:44;8.63;;;2.67;;
73898;SDS011;62234;50.892;12.724;2023-10-13T11:36:13;5.25;;;2.85;;
73898;SDS011;62234;50.892;12.724;2023-10-13T11:38:44;6.10;;;2.40;;
73898;SDS011;62234;50.892;12.724;2023-10-13T11:41:15;5.50;;;2.67;;
73898;SDS011;62234;50.892;12.724;2023-10-13T11:46:07;8.35;;;2.63;;
73898;SDS011;62234;50.892;12.724;2023-10-13T11:48:33;6.18;;;2.92;;
73898;SDS011;62234;50.892;12.724;2023-10-13T11:51:01;6.72;;;3.10;;
73898;SDS011;62234;50.892;12.724;2023-10-13T11:53:40;4.88;;;2.83;;
73898;SDS011;62234;50.892;12.724;2023-10-13T11:56:14;11.18;;;2.40;;
73898;SDS011;62234;50.892;12.724;2023-10-13T11:58:42;6.68;;;2.53;;
73898;SDS011;62234;50.892;12.724;2023-10-13T12:01:08;5.50;;;3.03;;
73898;SDS011;62234;50.892;12.724;2023-10-13T12:03:40;8.93;;;2.90;;
73898;SDS011;62234;50.892;12.724;2023-10-13T12:06:25;6.03;;;2.72;;
73898;SDS011;62234;50.892;12.724;2023-10-13T12:09:03;5.82;;;2.70;;
73898;SDS011;62234;50.892;12.724;2023-10-13T12:11:42;5.60;;;2.83;;
73898;SDS011;62234;50.892;12.724;2023-10-13T12:14:09;5.47;;;2.30;;
73898;SDS011;62234;50.892;12.724;2023-10-13T12:16:48;5.43;;;2.38;;
73898;SDS011;62234;50.892;12.724;2023-10-13T12:19:17;4.68;;;2.83;;
73898;SDS011;62234;50.892;12.724;2023-10-13T12:21:51;4.97;;;2.60;;
73898;SDS011;62234;50.892;12.724;2023-10-13T12:24:30;11.57;;;3.20;;
73898;SDS011;62234;50.892;12.724;2023-10-13T12:27:05;8.20;;;2.85;;
73898;SDS011;62234;50.892;12.724;2023-10-13T12:29:44;5.05;;;2.58;;
73898;SDS011;62234;50.892;12.724;2023-10-13T12:32:11;4.95;;;3.00;;
73898;SDS011;62234;50.892;12.724;2023-10-13T12:43:52;9.43;;;2.97;;
73898;SDS011;62234;50.892;12.724;2023-10-13T12:46:37;6.60;;;3.05;;
73898;SDS011;62234;50.892;12.724;2023-10-13T12:49:21;10.38;;;2.95;;
73898;SDS011;62234;50.892;12.724;2023-10-13T12:52:05;5.30;;;3.00;;
73898;SDS011;62234;50.892;12.724;2023-10-13T12:54:50;6.00;;;2.75;;
73898;SDS011;62234;50.892;12.724;2023-10-13T12:57:26;9.75;;;3.08;;
73898;SDS011;62234;50.892;12.724;2023-10-13T12:59:52;6.60;;;2.63;;
73898;SDS011;62234;50.892;12.724;2023-10-13T13:02:22;5.07;;;2.85;;
73898;SDS011;62234;50.892;12.724;2023-10-13T13:04:50;5.30;;;2.58;;
73898;SDS011;62234;50.892;12.724;2023-10-13T13:09:45;7.35;;;2.97;;
73898;SDS011;62234;50.892;12.724;2023-10-13T13:12:11;7.78;;;3.03;;
73898;SDS011;62234;50.892;12.724;2023-10-13T13:14:37;8.85;;;3.10;;
73898;SDS011;62234;50.892;12.724;2023-10-13T13:17:06;6.95;;;2.92;;
73898;SDS011;62234;50.892;12.724;2023-10-13T13:19:32;7.13;;;3.35;;
73898;SDS011;62234;50.892;12.724;2023-10-13T13:22:01;8.45;;;2.75;;
73898;SDS011;62234;50.892;12.724;2023-10-13T13:24:31;11.27;;;2.80;;
73898;SDS011;62234;50.892;12.724;2023-10-13T13:26:57;7.38;;;2.90;;
73898;SDS011;62234;50.892;12.724;2023-10-13T13:29:30;7.38;;;2.60;;
73898;SDS011;62234;50.892;12.724;2023-10-13T13:31:56;5.47;;;2.70;;
73898;SDS011;62234;50.892;12.724;2023-10-13T13:34:22;5.82;;;3.15;;
73898;SDS011;62234;50.892;12.724;2023-10-13T13:36:48;5.15;;;3.15;;
73898;SDS011;62234;50.892;12.724;2023-10-13T13:39:20;8.23;;;2.83;;
73898;SDS011;62234;50.892;12.724;2023-10-13T13:41:56;6.75;;;2.40;;
73898;SDS011;62234;50.892;12.724;2023-10-13T13:44:25;6.15;;;2.28;;
73898;SDS011;62234;50.892;12.724;2023-10-13T14:02:19;4.97;;;2.60;;
73898;SDS011;62234;50.892;12.724;2023-10-13T14:04:46;4.72;;;2.60;;
73898;SDS011;62234;50.892;12.724;2023-10-13T14:07:15;5.50;;;2.58;;
73898;SDS011;62234;50.892;12.724;2023-10-13T14:09:44;3.15;;;2.30;;
73898;SDS011;62234;50.892;12.724;2023-10-13T14:12:10;6.78;;;2.70;;
73898;SDS011;62234;50.892;12.724;2023-10-13T14:14:54;6.03;;;3.30;;
73898;SDS011;62234;50.892;12.724;2023-10-13T14:17:21;6.38;;;2.80;;
73898;SDS011;62234;50.892;12.724;2023-10-13T14:19:54;7.72;;;3.00;;
73898;SDS011;62234;50.892;12.724;2023-10-13T14:22:20;5.95;;;2.50;;
73898;SDS011;62234;50.892;12.724;2023-10-13T14:27:19;4.97;;;2.63;;
73898;SDS011;62234;50.892;12.724;2023-10-13T14:29:47;7.20;;;2.80;;
73898;SDS011;62234;50.892;12.724;2023-10-13T14:32:18;5.78;;;2.72;;
73898;SDS011;62234;50.892;12.724;2023-10-13T14:34:45;3.75;;;2.60;;
73898;SDS011;62234;50.892;12.724;2023-10-13T14:37:13;9.23;;;2.72;;
73898;SDS011;62234;50.892;12.724;2023-10-13T14:39:42;6.78;;;2.40;;
73898;SDS011;62234;50.892;12.724;2023-10-13T14:42:08;3.95;;;2.20;;
73898;SDS011;62234;50.892;12.724;2023-10-13T14:50:44;6.28;;;2.58;;
73898;SDS011;62234;50.892;12.724;2023-10-13T14:53:10;5.25;;;2.40;;
73898;SDS011;62234;50.892;12.724;2023-10-13T14:55:36;6.57;;;2.80;;
73898;SDS011;62234;50.892;12.724;2023-10-13T15:13:23;6.90;;;3.72;;
73898;SDS011;62234;50.892;12.724;2023-10-13T15:15:52;5.18;;;2.53;;
73898;SDS011;62234;50.892;12.724;2023-10-13T15:18:18;5.30;;;2.35;;
73898;SDS011;62234;50.892;12.724;2023-10-13T15:20:44;5.53;;;2.40;;
73898;SDS011;62234;50.892;12.724;2023-10-13T15:23:10;5.10;;;2.58;;
73898;SDS011;62234;50.892;12.724;2023-10-13T15:28:43;5.70;;;2.42;;
73898;SDS011;62234;50.892;12.724;2023-10-13T15:31:18;6.70;;;2.58;;
73898;SDS011;62234;50.892;12.724;2023-10-13T15:33:52;4.70;;;2.53;;
73898;SDS011;62234;50.892;12.724;2023-10-13T15:45:33;5.63;;;2.15;;
73898;SDS011;62234;50.892;12.724;2023-10-13T15:48:04;7.55;;;2.30;;
73898;SDS011;62234;50.892;12.724;2023-10-13T15:50:35;4.68;;;2.45;;
73898;SDS011;62234;50.892;12.724;2023-10-13T15:53:04;8.95;;;2.42;;
73898;SDS011;62234;50.892;12.724;2023-10-13T15:55:31;4.18;;;2.42;;
73898;SDS011;62234;50.892;12.724;2023-10-13T15:58:00;4.85;;;2.20;;
73898;SDS011;62234;50.892;12.724;2023-10-13T16:00:26;3.17;;;1.98;;
73898;SDS011;62234;50.892;12.724;2023-10-13T16:02:52;8.07;;;2.38;;
73898;SDS011;62234;50.892;12.724;2023-10-13T16:05:23;6.85;;;2.60;;
73898;SDS011;62234;50.892;12.724;2023-10-13T16:07:54;9.18;;;2.50;;
73898;SDS011;62234;50.892;12.724;2023-10-13T16:10:23;4.72;;;2.00;;
73898;SDS011;62234;50.892;12.724;2023-10-13T16:12:52;7.00;;;2.50;;
73898;SDS011;62234;50.892;12.724;2023-10-13T16:15:18;5.60;;;2.45;;
73898;SDS011;62234;50.892;12.724;2023-10-13T16:17:46;4.00;;;2.08;;
73898;SDS011;62234;50.892;12.724;2023-10-13T16:20:12;9.73;;;2.58;;
73898;SDS011;62234;50.892;12.724;2023-10-13T16:22:42;4.78;;;2.15;;
73898;SDS011;62234;50.892;12.724;2023-10-13T16:25:09;5.18;;;2.13;;
73898;SDS011;62234;50.892;12.724;2023-10-13T16:27:36;6.40;;;2.30;;
73898;SDS011;62234;50.892;12.724;2023-10-13T16:30:05;5.90;;;2.38;;
73898;SDS011;62234;50.892;12.724;2023-10-13T16:32:34;5.78;;;2.45;;
73898;SDS011;62234;50.892;12.724;2023-10-13T16:35:00;4.18;;;2.30;;
73898;SDS011;62234;50.892;12.724;2023-10-13T16:37:26;3.83;;;2.05;;
73898;SDS011;62234;50.892;12.724;2023-10-13T16:39:52;6.82;;;2.35;;
73898;SDS011;62234;50.892;12.724;2023-10-13T16:42:18;5.68;;;2.78;;
73898;SDS011;62234;50.892;12.724;2023-10-13T16:44:44;5.60;;;2.42;;
73898;SDS011;62234;50.892;12.724;2023-10-13T16:47:10;8.25;;;2.38;;
73898;SDS011;62234;50.892;12.724;2023-10-13T16:49:38;8.95;;;2.30;;
73898;SDS011;62234;50.892;12.724;2023-10-13T16:52:08;5.30;;;2.15;;
73898;SDS011;62234;50.892;12.724;2023-10-13T16:54:37;3.22;;;2.20;;
73898;SDS011;62234;50.892;12.724;2023-10-13T16:57:03;4.40;;;2.22;;
73898;SDS011;62234;50.892;12.724;2023-10-13T16:59:29;5.88;;;2.50;;
73898;SDS011;62234;50.892;12.724;2023-10-13T17:01:55;2.67;;;1.83;;
73898;SDS011;62234;50.892;12.724;2023-10-13T17:04:22;7.10;;;2.33;;